createdAt,value
2023-01-15T00:01:22.800Z,99352.25
2023-01-15T00:03:53.389Z,99193.50
2023-01-15T00:06:21.820Z,99254.47
2023-01-15T00:08:54.910Z,99282.56
2023-01-15T00:11:23.416Z,99344.00
2023-01-15T00:13:54.758Z,99218.53
2023-01-15T00:16:24.863Z,99288.03
2023-01-15T00:18:53.915Z,99249.94
2023-01-15T00:21:21.493Z,99362.34
2023-01-15T00:24:07.607Z,99376.16
2023-01-15T00:26:53.639Z,99289.41
2023-01-15T00:29:22.179Z,99243.69
2023-01-15T00:32:04.606Z,99315.22
2023-01-15T00:34:32.913Z,99336.53
2023-01-15T00:37:08.173Z,99253.34
2023-01-15T00:39:35.964Z,99278.09
2023-01-15T00:42:02.989Z,99309.16
2023-01-15T00:44:29.723Z,99362.16
2023-01-15T00:47:00.006Z,99280.44
2023-01-15T00:49:56.909Z,99311.28
2023-01-15T00:52:23.878Z,99325.41
2023-01-15T00:54:53.190Z,99314.38
2023-01-15T00:57:21.466Z,99305.09
2023-01-15T00:59:48.869Z,99258.41
2023-01-15T01:02:16.008Z,99397.31
2023-01-15T01:04:45.770Z,99302.31
2023-01-15T01:07:13.815Z,99332.47
2023-01-15T01:09:40.535Z,99290.69
2023-01-15T01:12:07.304Z,99338.59
2023-01-15T01:14:34.046Z,99334.16
2023-01-15T01:17:00.795Z,99359.75
2023-01-15T01:19:27.495Z,99332.22
2023-01-15T01:21:54.536Z,99370.31
2023-01-15T01:24:23.710Z,99377.84
2023-01-15T01:26:53.457Z,99323.94
2023-01-15T01:29:22.652Z,99338.00
2023-01-15T01:31:51.400Z,99326.88
2023-01-15T01:34:18.154Z,99401.34
2023-01-15T01:36:45.408Z,99421.34
2023-01-15T01:39:17.648Z,99398.19
2023-01-15T01:41:45.142Z,99419.66
2023-01-15T01:44:33.489Z,99437.41
2023-01-15T01:47:03.119Z,99406.19
2023-01-15T01:49:31.129Z,99423.47
2023-01-15T01:52:11.359Z,99403.69
2023-01-15T01:54:39.136Z,99417.94
2023-01-15T01:57:07.389Z,99416.53
2023-01-15T01:59:34.537Z,99422.06
2023-01-15T02:02:01.484Z,99389.94
2023-01-15T02:04:29.984Z,99424.41
2023-01-15T02:06:59.037Z,99400.47
2023-01-15T02:09:25.694Z,99413.19
2023-01-15T02:11:57.644Z,99432.94
2023-01-15T02:14:39.257Z,99406.72
2023-01-15T02:17:22.413Z,99391.31
2023-01-15T02:20:06.249Z,99412.47
2023-01-15T02:23:17.762Z,99406.53
2023-01-15T02:26:12.052Z,99414.97
2023-01-15T02:28:42.575Z,99377.81
2023-01-15T02:31:25.477Z,99418.84
2023-01-15T02:34:01.410Z,99412.44
2023-01-15T02:36:30.778Z,99412.56
2023-01-15T02:39:00.174Z,99386.88
2023-01-15T02:41:33.374Z,99418.22
2023-01-15T02:44:03.699Z,99377.31
2023-01-15T02:46:34.822Z,99401.06
2023-01-15T02:49:04.964Z,99346.78
2023-01-15T02:51:39.623Z,99383.09
2023-01-15T02:54:12.063Z,99414.88
2023-01-15T02:56:41.156Z,99343.72
2023-01-15T02:59:13.283Z,99394.50
2023-01-15T03:01:51.793Z,99368.31
2023-01-15T03:04:43.746Z,99399.97
2023-01-15T03:07:19.472Z,99363.69
2023-01-15T03:09:48.542Z,99362.09
2023-01-15T03:12:30.526Z,99398.91
2023-01-15T03:15:03.437Z,99388.69
2023-01-15T03:17:40.074Z,99361.03
2023-01-15T03:20:10.192Z,99393.16
2023-01-15T03:22:41.189Z,99378.97
2023-01-15T03:25:16.636Z,99371.19
2023-01-15T03:27:43.478Z,99361.59
2023-01-15T03:30:16.191Z,99349.31
2023-01-15T03:32:43.285Z,99337.09
2023-01-15T03:35:50.155Z,99362.06
2023-01-15T03:38:21.641Z,99315.78
2023-01-15T03:41:08.393Z,99366.97
2023-01-15T03:43:56.805Z,99346.03
2023-01-15T03:46:29.025Z,99360.78
2023-01-15T03:49:36.248Z,99375.84
2023-01-15T03:52:11.140Z,99368.34
2023-01-15T03:54:52.819Z,99368.16
2023-01-15T03:57:38.027Z,99371.13
2023-01-15T04:00:13.938Z,99364.66
2023-01-15T04:02:41.583Z,99365.31
2023-01-15T04:05:08.437Z,99353.25
2023-01-15T04:07:34.965Z,99360.44
2023-01-15T04:10:01.749Z,99355.81
2023-01-15T04:12:28.974Z,99352.66
2023-01-15T04:14:55.545Z,99360.31
2023-01-15T04:17:22.137Z,99361.34
2023-01-15T04:19:48.785Z,99360.91
2023-01-15T04:22:15.302Z,99352.41
2023-01-15T04:24:42.063Z,99357.31
2023-01-15T04:27:08.713Z,99362.69
2023-01-15T04:29:35.268Z,99365.63
2023-01-15T04:32:01.971Z,99370.19
2023-01-15T04:34:29.239Z,99377.88
2023-01-15T04:36:56.293Z,99361.31
2023-01-15T04:39:23.293Z,99362.47
2023-01-15T04:42:08.434Z,99369.31
2023-01-15T04:44:35.276Z,99376.13
2023-01-15T04:47:01.878Z,99368.78
2023-01-15T04:49:28.564Z,99383.75
2023-01-15T04:51:55.192Z,99370.66
2023-01-15T04:54:22.738Z,99380.16
2023-01-15T04:56:51.090Z,99381.03
2023-01-15T04:59:19.345Z,99380.88
2023-01-15T05:02:01.857Z,99377.97
2023-01-15T05:04:29.528Z,99366.03
2023-01-15T05:06:56.504Z,99379.84
2023-01-15T05:09:23.164Z,99365.53
2023-01-15T05:11:49.824Z,99366.50
2023-01-15T05:14:16.355Z,99349.84
2023-01-15T05:16:42.955Z,99359.53
2023-01-15T05:19:10.564Z,99365.59
2023-01-15T05:21:39.710Z,99357.44
2023-01-15T05:24:08.819Z,99369.91
2023-01-15T05:26:35.982Z,99369.81
2023-01-15T05:29:03.375Z,99363.09
2023-01-15T05:31:30.423Z,99372.78
2023-01-15T05:33:57.200Z,99375.22
2023-01-15T05:36:25.369Z,99375.03
2023-01-15T05:38:54.305Z,99370.13
2023-01-15T05:41:40.771Z,99383.50
2023-01-15T05:44:09.640Z,99368.50
2023-01-15T05:46:36.819Z,99378.09
2023-01-15T05:49:05.506Z,99368.34
2023-01-15T05:51:32.057Z,99379.38
2023-01-15T05:53:58.709Z,99384.09
2023-01-15T05:56:25.370Z,99382.66
2023-01-15T05:58:52.455Z,99385.63
2023-01-15T06:01:19.154Z,99387.84
2023-01-15T06:03:46.681Z,99380.44
2023-01-15T06:06:13.923Z,99383.63
2023-01-15T06:08:40.480Z,99379.09
2023-01-15T06:11:07.384Z,99383.75
2023-01-15T06:13:34.529Z,99381.22
2023-01-15T06:16:01.606Z,99381.31
2023-01-15T06:18:28.199Z,99377.91
2023-01-15T06:20:54.752Z,99373.38
2023-01-15T06:23:21.795Z,99371.72
2023-01-15T06:25:48.318Z,99367.19
2023-01-15T06:28:14.872Z,99374.34
2023-01-15T06:30:41.567Z,99360.38
2023-01-15T06:33:08.092Z,99358.31
2023-01-15T06:35:35.367Z,99367.47
2023-01-15T06:38:02.123Z,99365.03
2023-01-15T06:40:29.288Z,99372.91
2023-01-15T06:43:17.209Z,99364.25
2023-01-15T06:46:02.897Z,99363.53
2023-01-15T06:48:29.531Z,99373.38
2023-01-15T06:50:56.248Z,99357.19
2023-01-15T06:53:23.077Z,99377.50
2023-01-15T06:55:49.783Z,99361.72
2023-01-15T06:58:16.370Z,99367.56
2023-01-15T07:00:44.216Z,99390.16
2023-01-15T07:03:14.415Z,99390.66
2023-01-15T07:05:41.253Z,99388.19
2023-01-15T07:08:07.810Z,99380.03
2023-01-15T07:10:35.592Z,99373.13
2023-01-15T07:13:02.623Z,99388.53
2023-01-15T07:15:29.341Z,99384.38
2023-01-15T07:17:57.387Z,99386.19
2023-01-15T07:20:28.388Z,99383.69
2023-01-15T07:22:55.211Z,99383.69
2023-01-15T07:25:22.152Z,99381.63
2023-01-15T07:27:48.702Z,99377.75
2023-01-15T07:30:16.397Z,99369.03
2023-01-15T07:32:45.072Z,99375.69
2023-01-15T07:35:11.573Z,99378.91
2023-01-15T07:37:39.679Z,99380.88
2023-01-15T07:40:06.459Z,99379.53
2023-01-15T07:42:51.641Z,99371.97
2023-01-15T07:45:37.019Z,99387.09
2023-01-15T07:48:21.911Z,99390.06
2023-01-15T07:50:48.632Z,99379.69
2023-01-15T07:53:15.548Z,99374.81
2023-01-15T07:55:42.071Z,99382.00
2023-01-15T07:58:08.846Z,99370.97
2023-01-15T08:00:35.440Z,99374.81
2023-01-15T08:03:03.675Z,99394.06
2023-01-15T08:05:30.270Z,99391.28
2023-01-15T08:07:56.819Z,99379.03
2023-01-15T08:10:25.369Z,99373.50
2023-01-15T08:13:10.653Z,99381.69
2023-01-15T08:15:42.950Z,99379.75
2023-01-15T08:18:09.685Z,99385.28
2023-01-15T08:20:37.806Z,99386.53
2023-01-15T08:23:04.566Z,99378.56
2023-01-15T08:25:33.746Z,99383.44
2023-01-15T08:28:02.524Z,99389.47
2023-01-15T08:30:29.186Z,99404.44
2023-01-15T08:32:59.636Z,99393.88
2023-01-15T08:35:26.499Z,99398.81
2023-01-15T08:37:53.077Z,99395.44
2023-01-15T08:40:19.662Z,99393.00
2023-01-15T08:42:46.632Z,99404.69
2023-01-15T08:45:13.452Z,99402.53
2023-01-15T08:47:43.145Z,99391.97
2023-01-15T08:50:10.436Z,99382.75
2023-01-15T08:52:38.517Z,99391.56
2023-01-15T08:55:05.721Z,99397.22
2023-01-15T08:57:32.562Z,99399.56
2023-01-15T09:00:01.019Z,99392.16
2023-01-15T09:02:30.041Z,99400.75
2023-01-15T09:04:57.028Z,99383.25
2023-01-15T09:07:23.973Z,99397.97
2023-01-15T09:09:50.729Z,99405.69
2023-01-15T09:12:17.434Z,99344.44
2023-01-15T09:14:58.153Z,99409.50
2023-01-15T09:17:28.994Z,99422.94
2023-01-15T09:19:55.586Z,99413.78
2023-01-15T09:22:22.257Z,99406.44
2023-01-15T09:24:48.930Z,99397.47
2023-01-15T09:27:16.130Z,99402.94
2023-01-15T09:29:42.620Z,99393.81
2023-01-15T09:32:10.647Z,99399.91
2023-01-15T09:34:37.276Z,99403.59
2023-01-15T09:37:03.975Z,99401.53
2023-01-15T09:39:30.646Z,99402.41
2023-01-15T09:42:09.404Z,99403.31
2023-01-15T09:44:54.766Z,99402.88
2023-01-15T09:47:26.201Z,99409.97
2023-01-15T09:49:52.749Z,99407.81
2023-01-15T09:52:57.831Z,99408.19
2023-01-15T09:55:31.957Z,99392.66
2023-01-15T09:58:01.002Z,99395.44
2023-01-15T10:00:33.342Z,99403.06
2023-01-15T10:03:04.611Z,99400.97
2023-01-15T10:05:55.262Z,99396.31
2023-01-15T10:08:32.206Z,99399.53
2023-01-15T10:11:02.756Z,99416.06
2023-01-15T10:13:39.213Z,99406.97
2023-01-15T10:16:06.324Z,99396.28
2023-01-15T10:18:32.906Z,99381.88
2023-01-15T10:21:18.272Z,99402.97
2023-01-15T10:23:50.601Z,99404.56
2023-01-15T10:26:35.921Z,99403.66
2023-01-15T10:29:17.755Z,99415.69
2023-01-15T10:31:54.393Z,99403.31
2023-01-15T10:34:29.592Z,99406.50
2023-01-15T10:37:05.492Z,99406.13
2023-01-15T10:39:32.585Z,99412.88
2023-01-15T10:42:02.046Z,99421.34
2023-01-15T10:44:34.381Z,99417.66
2023-01-15T10:47:02.914Z,99410.59
2023-01-15T10:49:33.643Z,99421.91
2023-01-15T10:52:06.618Z,99420.66
2023-01-15T10:54:45.293Z,99424.84
2023-01-15T10:57:15.944Z,99438.91
2023-01-15T10:59:47.784Z,99444.66
2023-01-15T11:02:24.253Z,99424.63
2023-01-15T11:04:51.092Z,99428.78
2023-01-15T11:07:18.224Z,99430.75
2023-01-15T11:09:44.860Z,99407.44
2023-01-15T11:12:26.794Z,99403.44
2023-01-15T11:15:11.781Z,99405.88
2023-01-15T11:18:05.690Z,99412.44
2023-01-15T11:20:37.383Z,99401.34
2023-01-15T11:23:08.624Z,99418.97
2023-01-15T11:25:35.498Z,99409.69
2023-01-15T11:28:08.898Z,99418.84
2023-01-15T11:30:38.548Z,99417.72
2023-01-15T11:33:06.750Z,99400.09
2023-01-15T11:35:34.240Z,99415.25
2023-01-15T11:38:08.644Z,99398.13
2023-01-15T11:40:35.206Z,99383.19
2023-01-15T11:43:20.778Z,99387.69
2023-01-15T11:46:06.798Z,99388.16
2023-01-15T11:49:05.375Z,99420.47
2023-01-15T11:51:35.731Z,99396.53
2023-01-15T11:54:04.284Z,99398.56
2023-01-15T11:56:35.321Z,99389.72
2023-01-15T11:59:03.659Z,99400.59
2023-01-15T12:01:31.833Z,99398.38
2023-01-15T12:03:59.090Z,99392.78
2023-01-15T12:06:52.848Z,99399.34
2023-01-15T12:09:25.704Z,99403.78
2023-01-15T12:12:01.373Z,99393.16
2023-01-15T12:14:46.868Z,99394.22
2023-01-15T12:17:21.095Z,99384.28
2023-01-15T12:20:11.175Z,99389.16
2023-01-15T12:22:37.903Z,99392.53
2023-01-15T12:25:23.569Z,99362.56
2023-01-15T12:28:04.494Z,99356.69
2023-01-15T12:30:36.553Z,99376.75
2023-01-15T12:33:21.678Z,99367.22
2023-01-15T12:35:58.763Z,99368.56
2023-01-15T12:38:38.453Z,99363.69
2023-01-15T12:41:10.763Z,99362.84
2023-01-15T12:43:55.843Z,99375.25
2023-01-15T12:46:29.412Z,99399.25
2023-01-15T12:49:03.518Z,99380.75
2023-01-15T12:51:34.090Z,99371.00
2023-01-15T12:54:14.504Z,99366.03
2023-01-15T12:57:01.815Z,99343.53
2023-01-15T12:59:49.810Z,99387.94
2023-01-15T13:02:33.820Z,99347.47
2023-01-15T13:05:19.420Z,99342.94
2023-01-15T13:07:52.553Z,99331.50
2023-01-15T13:10:43.784Z,99328.53
2023-01-15T13:13:34.577Z,99350.00
2023-01-15T13:16:10.601Z,99337.28
2023-01-15T13:18:40.292Z,99342.53
2023-01-15T13:21:17.544Z,99375.84
2023-01-15T13:23:53.198Z,99368.66
2023-01-15T13:26:19.790Z,99351.09
2023-01-15T13:29:18.593Z,99368.31
2023-01-15T13:31:51.210Z,99352.22
2023-01-15T13:34:27.534Z,99369.00
2023-01-15T13:36:56.842Z,99376.97
2023-01-15T13:39:25.151Z,99385.34
2023-01-15T13:42:13.790Z,99368.66
2023-01-15T13:44:46.941Z,99354.03
2023-01-15T13:47:17.749Z,99367.84
2023-01-15T13:49:53.146Z,99370.44
2023-01-15T13:52:31.540Z,99376.19
2023-01-15T13:55:20.628Z,99372.91
2023-01-15T13:57:49.132Z,99388.50
2023-01-15T14:00:36.709Z,99380.53
2023-01-15T14:03:23.311Z,99401.09
2023-01-15T14:06:00.384Z,99393.00
2023-01-15T14:08:28.562Z,99415.88
2023-01-15T14:10:55.620Z,99400.19
2023-01-15T14:13:25.003Z,99409.84
2023-01-15T14:16:10.433Z,99435.47
2023-01-15T14:18:40.129Z,99433.47
2023-01-15T14:21:19.308Z,99414.06
2023-01-15T14:23:53.435Z,99421.41
2023-01-15T14:26:26.142Z,99415.03
2023-01-15T14:29:13.203Z,99430.41
2023-01-15T14:31:45.284Z,99428.06
2023-01-15T14:34:14.685Z,99435.13
2023-01-15T14:36:47.528Z,99425.34
2023-01-15T14:39:24.674Z,99448.75
2023-01-15T14:42:32.259Z,99445.72
2023-01-15T14:45:06.074Z,99434.22
2023-01-15T14:47:35.215Z,99441.59
2023-01-15T14:50:26.726Z,99448.03
2023-01-15T14:52:55.273Z,99440.88
2023-01-15T14:55:23.769Z,99452.75
2023-01-15T14:58:04.942Z,99447.91
2023-01-15T15:00:35.330Z,99456.81
2023-01-15T15:03:04.739Z,99457.59
2023-01-15T15:05:57.790Z,99459.13
2023-01-15T15:08:29.760Z,99469.00
2023-01-15T15:10:57.991Z,99478.22
2023-01-15T15:13:36.386Z,99508.47
2023-01-15T15:16:08.380Z,99502.25
2023-01-15T15:18:39.499Z,99489.50
2023-01-15T15:21:26.323Z,99503.16
2023-01-15T15:23:58.948Z,99494.28
2023-01-15T15:26:27.530Z,99482.69
2023-01-15T15:29:54.688Z,99492.34
2023-01-15T15:32:23.026Z,99500.34
2023-01-15T15:34:53.637Z,99498.25
2023-01-15T15:37:22.178Z,99506.75
2023-01-15T15:39:48.743Z,99499.97
2023-01-15T15:42:41.694Z,99511.81
2023-01-15T15:45:35.893Z,99506.09
2023-01-15T15:48:29.772Z,99514.34
2023-01-15T15:50:56.374Z,99506.59
2023-01-15T15:53:22.932Z,99502.34
2023-01-15T15:55:49.748Z,99506.06
2023-01-15T15:58:22.562Z,99516.56
2023-01-15T16:00:49.503Z,99524.81
2023-01-15T16:03:21.020Z,99514.16
2023-01-15T16:06:06.788Z,99514.81
2023-01-15T16:08:34.471Z,99516.66
2023-01-15T16:11:03.078Z,99516.53
2023-01-15T16:13:38.790Z,99511.84
2023-01-15T16:16:08.295Z,99527.28
2023-01-15T16:18:41.086Z,99516.09
2023-01-15T16:21:11.878Z,99533.94
2023-01-15T16:23:38.451Z,99529.38
2023-01-15T16:26:14.515Z,99535.56
2023-01-15T16:28:43.676Z,99530.53
2023-01-15T16:31:11.127Z,99526.66
2023-01-15T16:33:38.733Z,99542.03
2023-01-15T16:36:08.602Z,99535.38
2023-01-15T16:38:37.412Z,99533.75
2023-01-15T16:41:04.351Z,99564.22
2023-01-15T16:43:31.552Z,99559.84
2023-01-15T16:46:16.215Z,99554.00
2023-01-15T16:48:47.190Z,99520.00
2023-01-15T16:51:32.399Z,99544.44
2023-01-15T16:54:03.629Z,99553.84
2023-01-15T16:56:37.484Z,99553.53
2023-01-15T16:59:24.289Z,99556.31
2023-01-15T17:01:52.711Z,99560.38
2023-01-15T17:04:25.582Z,99541.22
2023-01-15T17:06:56.277Z,99543.66
2023-01-15T17:09:22.956Z,99534.56
2023-01-15T17:11:50.878Z,99540.13
2023-01-15T17:14:25.110Z,99552.09
2023-01-15T17:17:10.091Z,99554.38
2023-01-15T17:19:36.704Z,99559.69
2023-01-15T17:22:03.286Z,99569.09
2023-01-15T17:24:29.846Z,99558.09
2023-01-15T17:26:57.910Z,99557.78
2023-01-15T17:29:24.615Z,99567.78
2023-01-15T17:31:51.223Z,99570.56
2023-01-15T17:34:23.578Z,99584.03
2023-01-15T17:36:51.830Z,99586.28
2023-01-15T17:39:22.177Z,99580.94
2023-01-15T17:41:49.038Z,99574.44
2023-01-15T17:44:15.883Z,99573.16
2023-01-15T17:46:42.716Z,99579.81
2023-01-15T17:49:09.393Z,99567.47
2023-01-15T17:51:36.071Z,99565.06
2023-01-15T17:54:02.584Z,99573.47
2023-01-15T17:56:47.970Z,99569.09
2023-01-15T17:59:33.335Z,99582.06
2023-01-15T18:02:18.520Z,99578.47
2023-01-15T18:05:06.185Z,99576.88
2023-01-15T18:07:39.506Z,99587.88
2023-01-15T18:10:06.783Z,99600.69
2023-01-15T18:12:33.292Z,99582.03
2023-01-15T18:15:00.639Z,99586.91
2023-01-15T18:17:27.280Z,99581.88
2023-01-15T18:19:55.742Z,99577.97
2023-01-15T18:22:22.539Z,99597.94
2023-01-15T18:24:49.046Z,99592.56
2023-01-15T18:27:15.591Z,99583.97
2023-01-15T18:29:42.489Z,99603.44
2023-01-15T18:32:09.622Z,99604.25
2023-01-15T18:34:38.988Z,99611.69
2023-01-15T18:37:13.501Z,99583.16
2023-01-15T18:39:40.167Z,99597.13
2023-01-15T18:42:09.545Z,99612.81
2023-01-15T18:44:55.557Z,99608.91
2023-01-15T18:47:24.936Z,99613.97
2023-01-15T18:49:53.786Z,99617.22
2023-01-15T18:52:39.845Z,99619.16
2023-01-15T18:55:20.219Z,99629.69
2023-01-15T18:57:50.283Z,99621.25
2023-01-15T19:00:18.275Z,99634.25
2023-01-15T19:02:46.069Z,99636.03
2023-01-15T19:05:15.264Z,99617.38
2023-01-15T19:07:44.976Z,99627.41
2023-01-15T19:10:12.479Z,99624.19
2023-01-15T19:12:39.264Z,99634.25
2023-01-15T19:15:25.323Z,99628.25
2023-01-15T19:18:10.738Z,99618.50
2023-01-15T19:20:37.838Z,99615.69
2023-01-15T19:23:06.033Z,99633.22
2023-01-15T19:25:43.718Z,99612.59
2023-01-15T19:28:11.768Z,99625.09
2023-01-15T19:30:39.817Z,99613.75
2023-01-15T19:33:07.664Z,99616.06
2023-01-15T19:35:36.930Z,99617.00
2023-01-15T19:38:08.685Z,99606.59
2023-01-15T19:40:38.178Z,99604.38
2023-01-15T19:43:24.008Z,99607.41
2023-01-15T19:46:09.156Z,99618.16
2023-01-15T19:48:54.230Z,99607.41
2023-01-15T19:51:21.417Z,99598.66
2023-01-15T19:53:48.215Z,99605.31
2023-01-15T19:56:14.871Z,99606.63
2023-01-15T19:58:41.465Z,99574.75
2023-01-15T20:01:15.870Z,99603.91
2023-01-15T20:03:42.695Z,99599.34
2023-01-15T20:06:09.269Z,99606.50
2023-01-15T20:08:35.814Z,99602.13
2023-01-15T20:11:02.508Z,99599.22
2023-01-15T20:13:47.617Z,99592.56
2023-01-15T20:16:15.655Z,99595.97
2023-01-15T20:18:42.270Z,99590.63
2023-01-15T20:21:09.882Z,99598.56
2023-01-15T20:23:36.879Z,99602.13
2023-01-15T20:26:10.863Z,99600.66
2023-01-15T20:28:37.908Z,99593.53
2023-01-15T20:31:06.803Z,99585.41
2023-01-15T20:33:33.780Z,99595.09
2023-01-15T20:36:04.218Z,99594.94
2023-01-15T20:38:31.327Z,99588.94
2023-01-15T20:41:17.908Z,99573.19
2023-01-15T20:44:03.012Z,99587.00
2023-01-15T20:46:29.585Z,99590.22
2023-01-15T20:49:14.905Z,99583.53
2023-01-15T20:51:41.907Z,99565.34
2023-01-15T20:54:08.506Z,99570.09
2023-01-15T20:56:35.455Z,99573.84
2023-01-15T20:59:02.267Z,99566.03
2023-01-15T21:01:29.658Z,99564.22
2023-01-15T21:03:56.286Z,99568.63
2023-01-15T21:06:23.052Z,99578.78
2023-01-15T21:08:49.763Z,99570.00
2023-01-15T21:11:16.677Z,99566.09
2023-01-15T21:13:45.250Z,99565.00
2023-01-15T21:16:12.557Z,99556.59
2023-01-15T21:18:43.228Z,99557.38
2023-01-15T21:21:11.000Z,99550.94
2023-01-15T21:23:37.590Z,99547.88
2023-01-15T21:26:04.168Z,99548.72
2023-01-15T21:28:30.867Z,99541.28
2023-01-15T21:30:57.710Z,99535.13
2023-01-15T21:33:24.253Z,99536.94
2023-01-15T21:35:50.911Z,99527.03
2023-01-15T21:38:17.469Z,99527.34
2023-01-15T21:40:44.110Z,99526.25
2023-01-15T21:43:29.606Z,99528.19
2023-01-15T21:46:05.602Z,99516.50
2023-01-15T21:48:32.725Z,99525.56
2023-01-15T21:50:59.354Z,99513.19
2023-01-15T21:53:25.955Z,99513.50
2023-01-15T21:55:52.726Z,99511.25
2023-01-15T21:58:19.813Z,99508.00
2023-01-15T22:00:46.345Z,99507.38
2023-01-15T22:03:17.389Z,99505.41
2023-01-15T22:05:44.625Z,99501.56
2023-01-15T22:08:11.265Z,99497.50
2023-01-15T22:10:38.027Z,99497.81
2023-01-15T22:13:04.548Z,99497.19
2023-01-15T22:15:31.098Z,99484.34
2023-01-15T22:17:59.057Z,99481.75
2023-01-15T22:20:25.642Z,99479.66
2023-01-15T22:22:52.325Z,99477.41
2023-01-15T22:25:18.875Z,99477.22
2023-01-15T22:27:45.447Z,99460.03
2023-01-15T22:30:13.356Z,99463.16
2023-01-15T22:32:39.912Z,99462.16
2023-01-15T22:35:08.475Z,99454.97
2023-01-15T22:37:35.119Z,99446.09
2023-01-15T22:40:07.473Z,99443.34
2023-01-15T22:42:34.153Z,99439.03
2023-01-15T22:45:01.176Z,99441.91
2023-01-15T22:47:28.729Z,99433.91
2023-01-15T22:49:55.395Z,99423.72
2023-01-15T22:52:25.484Z,99427.75
2023-01-15T22:54:52.289Z,99425.00
2023-01-15T22:57:19.349Z,99426.44
2023-01-15T22:59:46.593Z,99414.09
2023-01-15T23:02:13.609Z,99415.25
2023-01-15T23:04:40.314Z,99417.97
2023-01-15T23:07:07.486Z,99407.66
2023-01-15T23:09:34.424Z,99400.06
2023-01-15T23:12:01.684Z,99392.88
2023-01-15T23:14:28.522Z,99398.41
2023-01-15T23:16:55.469Z,99402.00
2023-01-15T23:19:22.171Z,99386.66
2023-01-15T23:21:48.765Z,99382.13
2023-01-15T23:24:15.352Z,99387.63
2023-01-15T23:26:42.321Z,99382.50
2023-01-15T23:29:08.951Z,99379.28
2023-01-15T23:31:35.919Z,99375.41
2023-01-15T23:34:02.539Z,99371.81
2023-01-15T23:36:29.429Z,99368.91
2023-01-15T23:38:58.777Z,99365.03
2023-01-15T23:41:47.197Z,99362.94
2023-01-15T23:44:33.855Z,99343.66
2023-01-15T23:47:00.586Z,99353.41
2023-01-15T23:49:27.640Z,99348.09
2023-01-15T23:51:54.270Z,99349.06
2023-01-15T23:54:20.949Z,99341.28
2023-01-15T23:56:48.976Z,99340.50
2023-01-15T23:59:15.605Z,99330.44
